createdAt,value
2022-07-29T00:02:24.528Z,22.92
2022-07-29T00:04:50.980Z,22.99
2022-07-29T00:07:17.357Z,22.99
2022-07-29T00:09:50.925Z,23.00
2022-07-29T00:12:10.357Z,23.03
2022-07-29T00:14:36.816Z,23.02
2022-07-29T00:17:03.188Z,23.02
2022-07-29T00:19:29.576Z,23.04
2022-07-29T00:21:56.007Z,22.93
2022-07-29T00:24:22.359Z,22.79
2022-07-29T00:26:48.737Z,22.75
2022-07-29T00:29:33.607Z,22.95
2022-07-29T00:31:41.617Z,23.07
2022-07-29T00:34:07.975Z,23.10
2022-07-29T00:36:34.368Z,23.08
2022-07-29T00:39:00.774Z,23.01
2022-07-29T00:41:27.142Z,23.00
2022-07-29T00:43:53.506Z,22.92
2022-07-29T00:46:19.937Z,22.83
2022-07-29T00:48:46.347Z,22.80
2022-07-29T00:51:12.657Z,22.80
2022-07-29T00:53:39.041Z,22.87
2022-07-29T00:56:05.421Z,22.89
2022-07-29T00:58:31.788Z,22.99
2022-07-29T01:00:58.225Z,23.17
2022-07-29T01:03:24.658Z,23.63
2022-07-29T01:05:51.988Z,23.75
2022-07-29T01:08:17.531Z,23.62
2022-07-29T01:10:43.909Z,23.60
2022-07-29T01:13:10.388Z,23.59
2022-07-29T01:15:36.838Z,23.47
2022-07-29T01:18:03.274Z,23.31
2022-07-29T01:20:31.891Z,23.14
2022-07-29T01:22:56.018Z,23.04
2022-07-29T01:25:22.459Z,22.97
2022-07-29T01:27:48.845Z,22.87
2022-07-29T01:30:15.663Z,22.83
2022-07-29T01:32:41.655Z,22.92
2022-07-29T01:35:08.028Z,22.97
2022-07-29T01:37:34.415Z,22.88
2022-07-29T01:40:00.821Z,22.86
2022-07-29T01:42:27.205Z,22.90
2022-07-29T01:44:53.571Z,22.97
2022-07-29T01:47:19.935Z,22.96
2022-07-29T01:49:46.312Z,22.90
2022-07-29T01:52:12.707Z,22.81
2022-07-29T01:54:39.114Z,22.76
2022-07-29T01:57:05.477Z,22.71
2022-07-29T01:59:31.856Z,22.61
2022-07-29T02:01:58.307Z,22.53
2022-07-29T02:04:28.974Z,22.51
2022-07-29T02:06:50.991Z,22.49
2022-07-29T02:09:17.359Z,22.45
2022-07-29T02:11:43.742Z,22.43
2022-07-29T02:14:10.170Z,22.42
2022-07-29T02:16:36.619Z,22.39
2022-07-29T02:19:02.918Z,22.36
2022-07-29T02:21:29.387Z,22.29
2022-07-29T02:23:55.822Z,22.19
2022-07-29T02:26:22.257Z,22.19
2022-07-29T02:28:48.691Z,22.26
2022-07-29T02:31:15.097Z,22.19
2022-07-29T02:33:41.553Z,22.18
2022-07-29T02:36:07.986Z,22.27
2022-07-29T02:38:34.354Z,22.44
2022-07-29T02:41:00.750Z,22.49
2022-07-29T02:43:27.114Z,22.36
2022-07-29T02:45:53.510Z,22.30
2022-07-29T02:48:19.883Z,22.31
2022-07-29T02:50:46.380Z,22.32
2022-07-29T02:53:12.766Z,22.29
2022-07-29T02:55:39.124Z,22.22
2022-07-29T02:58:05.673Z,22.16
2022-07-29T03:00:32.032Z,22.26
2022-07-29T03:02:58.448Z,22.32
2022-07-29T03:05:24.815Z,22.32
2022-07-29T03:07:51.177Z,22.27
2022-07-29T03:10:17.555Z,22.24
2022-07-29T03:12:43.926Z,22.18
2022-07-29T03:15:10.312Z,22.15
2022-07-29T03:17:36.739Z,22.00
2022-07-29T03:20:03.101Z,21.88
2022-07-29T03:22:29.491Z,21.83
2022-07-29T03:24:55.902Z,21.80
2022-07-29T03:27:22.365Z,21.74
2022-07-29T03:29:49.846Z,21.54
2022-07-29T03:32:15.175Z,21.55
2022-07-29T03:34:41.660Z,21.61
2022-07-29T03:37:08.062Z,21.60
2022-07-29T03:39:34.425Z,21.71
2022-07-29T03:42:00.792Z,21.78
2022-07-29T03:44:27.215Z,21.78
2022-07-29T03:46:53.590Z,21.75
2022-07-29T03:49:20.074Z,21.70
2022-07-29T03:51:46.351Z,21.71
2022-07-29T03:54:12.716Z,21.74
2022-07-29T03:56:39.091Z,21.58
2022-07-29T03:59:05.460Z,21.37
2022-07-29T04:01:31.850Z,21.43
2022-07-29T04:03:58.304Z,21.51
2022-07-29T04:06:24.627Z,21.58
2022-07-29T04:08:51.117Z,21.62
2022-07-29T04:11:17.479Z,21.65
2022-07-29T04:13:43.841Z,21.67
2022-07-29T04:16:10.361Z,21.69
2022-07-29T04:18:36.674Z,21.72
2022-07-29T04:21:03.040Z,21.75
2022-07-29T04:23:29.506Z,21.77
2022-07-29T04:25:55.889Z,21.80
2022-07-29T04:28:22.249Z,21.84
2022-07-29T04:30:48.664Z,21.83
2022-07-29T04:33:14.986Z,21.86
2022-07-29T04:35:50.531Z,21.65
2022-07-29T04:38:07.902Z,21.73
2022-07-29T04:40:34.329Z,21.50
2022-07-29T04:43:00.754Z,21.41
2022-07-29T04:45:27.121Z,21.42
2022-07-29T04:47:53.482Z,21.34
2022-07-29T04:50:19.888Z,21.36
2022-07-29T04:52:46.290Z,21.32
2022-07-29T04:55:12.722Z,21.11
2022-07-29T04:57:39.084Z,21.03
2022-07-29T05:00:05.488Z,21.27
2022-07-29T05:02:31.984Z,21.49
2022-07-29T05:04:58.355Z,21.49
2022-07-29T05:07:24.784Z,21.67
2022-07-29T05:09:51.196Z,21.82
2022-07-29T05:12:17.580Z,21.96
2022-07-29T05:14:43.963Z,22.05
2022-07-29T05:17:10.414Z,22.17
2022-07-29T05:19:39.644Z,22.29
2022-07-29T05:22:03.203Z,22.39
2022-07-29T05:24:29.573Z,22.53
2022-07-29T05:26:55.959Z,22.73
2022-07-29T05:29:43.042Z,22.84
2022-07-29T05:31:48.753Z,22.97
2022-07-29T05:34:15.314Z,23.06
2022-07-29T05:36:41.574Z,23.19
2022-07-29T05:39:08.008Z,23.41
2022-07-29T05:41:34.367Z,23.69
2022-07-29T05:44:00.769Z,23.87
2022-07-29T05:46:27.173Z,23.97
2022-07-29T05:48:53.565Z,24.04
2022-07-29T05:51:19.982Z,24.22
2022-07-29T05:53:46.357Z,24.45
2022-07-29T05:56:12.772Z,24.70
2022-07-29T05:58:39.138Z,24.81
2022-07-29T06:01:05.545Z,24.96
2022-07-29T06:03:31.899Z,25.02
2022-07-29T06:05:58.340Z,25.05
2022-07-29T06:08:24.718Z,25.16
2022-07-29T06:10:51.132Z,25.28
2022-07-29T06:13:17.523Z,25.38
2022-07-29T06:15:44.026Z,25.51
2022-07-29T06:18:10.490Z,25.61
2022-07-29T06:20:36.782Z,25.75
2022-07-29T06:23:03.427Z,25.87
2022-07-29T06:25:29.864Z,26.00
2022-07-29T06:27:56.254Z,26.14
2022-07-29T06:30:22.742Z,26.26
2022-07-29T06:32:49.126Z,26.35
2022-07-29T06:35:41.515Z,26.39
2022-07-29T06:37:41.923Z,26.55
2022-07-29T06:40:08.318Z,26.71
2022-07-29T06:42:34.703Z,26.85
2022-07-29T06:45:03.038Z,27.02
2022-07-29T06:47:27.471Z,27.12
2022-07-29T06:49:53.876Z,27.17
2022-07-29T06:52:20.452Z,27.26
2022-07-29T06:54:46.861Z,27.44
2022-07-29T06:57:13.244Z,27.55
2022-07-29T06:59:39.637Z,27.70
2022-07-29T07:02:06.143Z,27.83
2022-07-29T07:04:32.506Z,27.99
2022-07-29T07:06:58.953Z,28.06
2022-07-29T07:09:25.315Z,28.14
2022-07-29T07:11:51.710Z,28.28
2022-07-29T07:14:18.479Z,28.43
2022-07-29T07:16:44.634Z,28.41
2022-07-29T07:19:10.886Z,28.42
2022-07-29T07:21:37.266Z,28.43
2022-07-29T07:24:03.702Z,28.45
2022-07-29T07:26:30.147Z,28.47
2022-07-29T07:28:56.516Z,28.64
2022-07-29T07:31:22.947Z,28.85
2022-07-29T07:33:49.279Z,28.93
2022-07-29T07:36:15.666Z,28.93
2022-07-29T07:38:42.023Z,28.97
2022-07-29T07:41:08.401Z,29.03
2022-07-29T07:43:34.862Z,29.08
2022-07-29T07:46:01.338Z,29.23
2022-07-29T07:48:27.666Z,29.35
2022-07-29T07:50:54.160Z,29.31
2022-07-29T07:53:20.593Z,29.33
2022-07-29T07:56:09.578Z,29.42
2022-07-29T07:58:13.397Z,29.51
2022-07-29T08:00:39.770Z,29.55
2022-07-29T08:03:06.228Z,29.65
2022-07-29T08:05:32.641Z,29.75
2022-07-29T08:07:59.004Z,29.74
2022-07-29T08:10:25.421Z,29.81
2022-07-29T08:12:51.788Z,29.87
2022-07-29T08:15:18.193Z,29.94
2022-07-29T08:17:44.629Z,30.08
2022-07-29T08:20:10.993Z,30.19
2022-07-29T08:22:37.382Z,30.28
2022-07-29T08:25:03.817Z,30.35
2022-07-29T08:27:45.495Z,30.42
2022-07-29T08:29:56.546Z,30.64
2022-07-29T08:32:50.988Z,30.70
2022-07-29T08:34:49.302Z,30.73
2022-07-29T08:37:15.686Z,30.77
2022-07-29T08:39:42.054Z,30.87
2022-07-29T08:42:08.440Z,30.99
2022-07-29T08:44:34.833Z,31.10
2022-07-29T08:47:01.219Z,31.17
2022-07-29T08:49:27.636Z,31.31
2022-07-29T08:51:54.238Z,31.58
2022-07-29T08:54:20.362Z,31.70
2022-07-29T08:56:46.821Z,31.70
2022-07-29T08:59:13.184Z,31.71
2022-07-29T09:01:42.910Z,31.73
2022-07-29T09:04:05.969Z,31.83
2022-07-29T09:06:32.317Z,31.95
2022-07-29T09:08:58.789Z,31.91
2022-07-29T09:11:25.184Z,31.99
2022-07-29T09:13:51.558Z,32.14
2022-07-29T09:16:37.247Z,32.23
2022-07-29T09:18:44.350Z,32.43
2022-07-29T09:21:10.750Z,32.46
2022-07-29T09:23:37.137Z,32.45
2022-07-29T09:26:03.547Z,32.28
2022-07-29T09:28:29.936Z,32.34
2022-07-29T09:30:56.385Z,32.38
2022-07-29T09:33:22.801Z,32.36
2022-07-29T09:35:56.439Z,32.41
2022-07-29T09:38:15.554Z,32.54
2022-07-29T09:40:41.927Z,32.71
2022-07-29T09:43:08.300Z,32.77
2022-07-29T09:45:34.685Z,32.78
2022-07-29T09:48:01.104Z,32.94
2022-07-29T09:50:27.485Z,33.00
2022-07-29T09:52:54.050Z,33.05
2022-07-29T09:55:20.424Z,33.15
2022-07-29T09:57:46.901Z,33.31
2022-07-29T10:00:13.386Z,33.39
2022-07-29T10:02:39.649Z,33.50
2022-07-29T10:05:06.051Z,33.66
2022-07-29T10:07:32.424Z,33.73
2022-07-29T10:09:58.884Z,33.81
2022-07-29T10:12:25.247Z,33.87
2022-07-29T10:14:51.662Z,33.97
2022-07-29T10:17:18.092Z,34.11
2022-07-29T10:19:44.492Z,34.19
2022-07-29T10:22:10.960Z,34.27
2022-07-29T10:24:37.397Z,34.39
2022-07-29T10:27:03.837Z,34.49
2022-07-29T10:29:30.219Z,34.48
2022-07-29T10:31:56.820Z,34.48
2022-07-29T10:34:22.956Z,34.38
2022-07-29T10:36:49.316Z,34.42
2022-07-29T10:39:15.717Z,34.44
2022-07-29T10:41:43.778Z,34.47
2022-07-29T10:44:08.486Z,34.51
2022-07-29T10:46:34.913Z,34.49
2022-07-29T10:49:01.347Z,34.44
2022-07-29T10:51:27.659Z,34.44
2022-07-29T10:53:54.062Z,34.43
2022-07-29T10:56:20.441Z,34.47
2022-07-29T10:58:49.946Z,34.53
2022-07-29T11:01:13.251Z,34.62
2022-07-29T11:03:39.648Z,34.62
2022-07-29T11:06:08.727Z,34.65
2022-07-29T11:08:32.414Z,34.65
2022-07-29T11:10:58.776Z,34.64
2022-07-29T11:13:27.926Z,34.68
2022-07-29T11:15:54.348Z,34.70
2022-07-29T11:18:20.757Z,34.67
2022-07-29T11:20:47.784Z,34.73
2022-07-29T11:23:13.484Z,34.75
2022-07-29T11:25:50.099Z,34.78
2022-07-29T11:28:06.276Z,34.81
2022-07-29T11:30:32.640Z,34.83
2022-07-29T11:32:59.019Z,34.77
2022-07-29T11:35:38.577Z,34.75
2022-07-29T11:40:18.513Z,34.84
2022-07-29T11:42:44.667Z,34.85
2022-07-29T11:45:42.534Z,34.85
2022-07-29T11:47:38.290Z,34.86
2022-07-29T11:50:03.976Z,34.90
2022-07-29T11:52:30.393Z,34.90
2022-07-29T11:57:36.337Z,34.84
2022-07-29T11:59:49.677Z,34.84
2022-07-29T12:02:37.138Z,34.84
2022-07-29T12:04:43.604Z,34.77
2022-07-29T12:07:02.301Z,34.84
2022-07-29T12:07:03.361Z,34.78
2022-07-29T12:07:08.921Z,34.74
2022-07-29T12:09:40.399Z,34.76
2022-07-29T12:12:05.234Z,34.69
2022-07-29T12:14:28.163Z,34.62
2022-07-29T12:16:54.564Z,34.46
2022-07-29T12:19:20.888Z,34.55
2022-07-29T12:21:50.941Z,34.55
2022-07-29T12:24:13.722Z,34.51
2022-07-29T12:26:40.498Z,34.51
2022-07-29T12:29:11.329Z,34.49
2022-07-29T12:31:41.832Z,34.44
2022-07-29T12:33:59.287Z,34.43
2022-07-29T12:36:25.663Z,34.37
2022-07-29T12:38:52.031Z,34.43
2022-07-29T12:41:18.416Z,34.60
2022-07-29T12:43:44.781Z,34.75
2022-07-29T12:46:11.256Z,34.83
2022-07-29T12:48:37.719Z,34.66
2022-07-29T12:51:04.001Z,34.87
2022-07-29T12:53:30.419Z,34.90
2022-07-29T12:55:56.813Z,34.81
2022-07-29T12:58:23.297Z,34.70
2022-07-29T13:00:49.711Z,34.59
2022-07-29T13:03:16.076Z,34.42
2022-07-29T13:05:45.764Z,34.31
2022-07-29T13:08:08.846Z,34.23
2022-07-29T13:10:35.243Z,34.31
2022-07-29T13:13:01.607Z,34.20
2022-07-29T13:15:27.981Z,34.08
2022-07-29T13:17:54.362Z,34.02
2022-07-29T13:20:20.739Z,34.07
2022-07-29T13:22:47.132Z,34.05
2022-07-29T13:25:13.537Z,34.00
2022-07-29T13:27:39.925Z,33.91
2022-07-29T13:30:06.329Z,33.87
2022-07-29T13:32:32.705Z,33.84
2022-07-29T13:34:59.068Z,33.83
2022-07-29T13:37:25.497Z,33.79
2022-07-29T13:39:53.141Z,33.70
2022-07-29T13:42:18.375Z,33.59
2022-07-29T13:44:44.808Z,33.48
2022-07-29T13:47:11.167Z,33.42
2022-07-29T13:49:37.565Z,33.39
2022-07-29T13:52:03.954Z,33.34
2022-07-29T13:54:30.353Z,33.27
2022-07-29T13:56:56.732Z,33.19
2022-07-29T13:59:23.116Z,33.28
2022-07-29T14:01:49.487Z,33.32
2022-07-29T14:04:15.979Z,33.23
2022-07-29T14:06:42.294Z,33.18
2022-07-29T14:09:08.655Z,33.12
2022-07-29T14:11:35.049Z,33.07
2022-07-29T14:14:01.441Z,32.96
2022-07-29T14:16:27.856Z,32.88
2022-07-29T14:18:54.253Z,32.81
2022-07-29T14:21:20.652Z,32.80
2022-07-29T14:23:47.033Z,32.75
2022-07-29T14:26:18.239Z,32.56
2022-07-29T14:28:41.968Z,32.50
2022-07-29T14:31:06.190Z,32.42
2022-07-29T14:33:32.555Z,32.39
2022-07-29T14:36:01.001Z,32.44
2022-07-29T14:38:26.926Z,32.42
2022-07-29T14:40:51.774Z,32.34
2022-07-29T14:43:18.139Z,32.30
2022-07-29T14:45:44.543Z,32.29
2022-07-29T14:48:10.875Z,32.25
2022-07-29T14:50:37.258Z,32.17
2022-07-29T14:53:03.654Z,32.18
2022-07-29T14:55:30.045Z,32.19
2022-07-29T14:58:05.829Z,32.18
2022-07-29T15:00:22.794Z,32.12
2022-07-29T15:03:04.491Z,32.09
2022-07-29T15:05:15.545Z,32.10
2022-07-29T15:07:41.937Z,32.08
2022-07-29T15:10:08.391Z,32.05
2022-07-29T15:12:34.758Z,32.06
2022-07-29T15:15:01.123Z,32.04
2022-07-29T15:17:27.489Z,31.92
2022-07-29T15:19:53.904Z,31.86
2022-07-29T15:22:20.302Z,31.90
2022-07-29T15:24:46.685Z,31.86
2022-07-29T15:27:13.113Z,31.86
2022-07-29T15:29:39.487Z,31.82
2022-07-29T15:32:06.011Z,31.82
2022-07-29T15:34:32.276Z,31.79
2022-07-29T15:36:58.685Z,31.77
2022-07-29T15:39:25.054Z,31.78
2022-07-29T15:41:51.446Z,31.79
2022-07-29T15:44:17.813Z,31.79
2022-07-29T15:46:44.204Z,31.64
2022-07-29T15:49:10.621Z,31.59
2022-07-29T15:51:36.934Z,31.63
2022-07-29T15:54:03.300Z,31.65
2022-07-29T15:56:29.675Z,31.63
2022-07-29T15:58:56.040Z,31.63
2022-07-29T16:01:22.458Z,31.60
2022-07-29T16:03:48.845Z,31.51
2022-07-29T16:06:15.206Z,31.45
2022-07-29T16:08:41.592Z,31.40
2022-07-29T16:11:08.013Z,31.37
2022-07-29T16:13:34.385Z,31.31
2022-07-29T16:16:02.929Z,31.27
2022-07-29T16:18:30.294Z,31.21
2022-07-29T16:20:53.579Z,31.16
2022-07-29T16:23:19.962Z,31.09
2022-07-29T16:26:01.742Z,31.01
2022-07-29T16:28:12.727Z,30.98
2022-07-29T16:30:39.171Z,30.87
2022-07-29T16:33:08.341Z,30.82
2022-07-29T16:35:39.287Z,30.84
2022-07-29T16:37:58.340Z,30.82
2022-07-29T16:40:24.728Z,30.76
2022-07-29T16:42:51.144Z,30.65
2022-07-29T16:45:17.986Z,30.68
2022-07-29T16:47:43.955Z,30.68
2022-07-29T16:50:10.437Z,30.59
2022-07-29T16:52:36.880Z,30.45
2022-07-29T16:55:03.249Z,30.43
2022-07-29T16:57:29.738Z,30.37
2022-07-29T16:59:56.133Z,30.38
2022-07-29T17:02:22.582Z,30.24
2022-07-29T17:04:48.861Z,30.13
2022-07-29T17:07:15.235Z,30.03
2022-07-29T17:09:41.624Z,30.13
2022-07-29T17:12:08.026Z,30.18
2022-07-29T17:14:34.409Z,30.15
2022-07-29T17:17:02.022Z,29.96
2022-07-29T17:19:27.185Z,29.99
2022-07-29T17:21:58.211Z,30.05
2022-07-29T17:24:19.925Z,29.99
2022-07-29T17:26:46.459Z,29.90
2022-07-29T17:29:12.818Z,29.80
2022-07-29T17:31:39.255Z,29.77
2022-07-29T17:34:05.620Z,29.75
2022-07-29T17:36:31.978Z,29.64
2022-07-29T17:38:58.394Z,29.53
2022-07-29T17:41:24.759Z,29.47
2022-07-29T17:43:51.250Z,29.44
2022-07-29T17:46:17.658Z,29.50
2022-07-29T17:48:44.040Z,29.50
2022-07-29T17:51:10.367Z,29.55
2022-07-29T17:53:36.739Z,29.43
2022-07-29T17:56:03.125Z,29.36
2022-07-29T17:58:29.526Z,29.21
2022-07-29T18:00:55.967Z,29.18
2022-07-29T18:03:22.330Z,29.14
2022-07-29T18:05:48.681Z,29.02
2022-07-29T18:08:15.028Z,28.96
2022-07-29T18:10:41.502Z,28.98
2022-07-29T18:13:07.931Z,28.91
2022-07-29T18:15:34.315Z,28.89
2022-07-29T18:18:00.715Z,28.77
2022-07-29T18:20:27.232Z,28.81
2022-07-29T18:22:53.632Z,28.85
2022-07-29T18:25:20.096Z,28.58
2022-07-29T18:27:46.840Z,28.55
2022-07-29T18:30:13.209Z,28.56
2022-07-29T18:32:39.601Z,28.53
2022-07-29T18:35:06.016Z,28.55
2022-07-29T18:38:01.194Z,28.44
2022-07-29T18:39:59.625Z,28.28
2022-07-29T18:42:25.262Z,28.18
2022-07-29T18:44:51.621Z,28.12
2022-07-29T18:47:17.992Z,28.13
2022-07-29T18:49:44.353Z,28.30
2022-07-29T18:52:10.720Z,28.39
2022-07-29T18:54:37.094Z,28.30
2022-07-29T18:57:54.863Z,28.20
2022-07-29T18:59:29.818Z,28.15
2022-07-29T19:01:56.264Z,28.19
2022-07-29T19:04:22.579Z,28.07
2022-07-29T19:06:48.955Z,27.93
2022-07-29T19:09:15.334Z,28.05
2022-07-29T19:11:41.816Z,28.05
2022-07-29T19:14:08.254Z,27.79
2022-07-29T19:16:34.649Z,27.75
2022-07-29T19:19:01.051Z,27.73
2022-07-29T19:21:27.404Z,27.59
2022-07-29T19:24:05.821Z,27.66
2022-07-29T19:26:20.815Z,27.79
2022-07-29T19:28:48.764Z,27.93
2022-07-29T19:31:13.249Z,27.91
2022-07-29T19:33:39.709Z,27.76
2022-07-29T19:36:06.078Z,27.61
2022-07-29T19:38:32.443Z,27.34
2022-07-29T19:40:58.856Z,27.20
2022-07-29T19:43:51.760Z,27.27
2022-07-29T19:45:51.616Z,27.26
2022-07-29T19:48:18.024Z,27.22
2022-07-29T19:50:44.393Z,27.23
2022-07-29T19:53:10.779Z,27.30
2022-07-29T19:55:37.147Z,27.14
2022-07-29T19:58:03.541Z,27.02
2022-07-29T20:00:29.959Z,26.97
2022-07-29T20:02:56.373Z,26.89
2022-07-29T20:05:28.133Z,26.92
2022-07-29T20:07:49.120Z,26.89
2022-07-29T20:10:15.583Z,26.79
2022-07-29T20:12:42.003Z,26.68
2022-07-29T20:15:08.335Z,26.66
2022-07-29T20:17:39.918Z,26.57
2022-07-29T20:20:01.220Z,26.59
2022-07-29T20:22:27.598Z,26.85
2022-07-29T20:24:54.016Z,26.90
2022-07-29T20:27:20.460Z,26.78
2022-07-29T20:29:46.811Z,26.71
2022-07-29T20:32:13.211Z,26.71
2022-07-29T20:34:39.579Z,26.64
2022-07-29T20:37:06.058Z,26.67
2022-07-29T20:39:32.439Z,26.68
2022-07-29T20:41:58.863Z,26.64
2022-07-29T20:44:25.222Z,26.63
2022-07-29T20:46:51.619Z,26.54
2022-07-29T20:49:18.103Z,26.43
2022-07-29T20:51:44.394Z,26.40
2022-07-29T20:54:10.875Z,26.27
2022-07-29T20:56:37.285Z,26.14
2022-07-29T20:59:03.658Z,26.19
2022-07-29T21:01:30.090Z,26.26
2022-07-29T21:03:56.415Z,26.29
2022-07-29T21:06:22.786Z,26.26
2022-07-29T21:08:49.181Z,26.21
2022-07-29T21:11:15.566Z,26.04
2022-07-29T21:13:41.935Z,26.05
2022-07-29T21:16:09.668Z,26.00
2022-07-29T21:18:34.748Z,26.01
2022-07-29T21:21:01.113Z,26.02
2022-07-29T21:23:27.484Z,25.99
2022-07-29T21:25:53.867Z,25.93
2022-07-29T21:28:20.243Z,25.90
2022-07-29T21:30:46.656Z,25.93
2022-07-29T21:33:13.099Z,25.95
2022-07-29T21:36:11.158Z,26.00
2022-07-29T21:38:05.793Z,25.85
2022-07-29T21:40:32.191Z,25.81
2022-07-29T21:42:58.591Z,25.69
2022-07-29T21:45:25.046Z,25.51
2022-07-29T21:47:51.411Z,25.57
2022-07-29T21:50:17.941Z,25.55
2022-07-29T21:52:44.299Z,25.64
2022-07-29T21:55:11.530Z,25.46
2022-07-29T21:57:37.052Z,25.43
2022-07-29T22:00:03.508Z,25.58
2022-07-29T22:02:29.823Z,25.74
2022-07-29T22:04:56.243Z,25.64
2022-07-29T22:07:22.630Z,25.69
2022-07-29T22:09:49.020Z,25.80
2022-07-29T22:12:15.386Z,25.69
2022-07-29T22:14:41.773Z,25.44
2022-07-29T22:17:08.219Z,25.30
2022-07-29T22:19:34.602Z,25.12
2022-07-29T22:22:00.984Z,25.16
2022-07-29T22:24:27.461Z,25.21
2022-07-29T22:26:53.817Z,25.10
2022-07-29T22:29:20.185Z,25.00
2022-07-29T22:31:46.571Z,25.00
2022-07-29T22:34:12.952Z,24.96
2022-07-29T22:36:39.336Z,24.86
2022-07-29T22:39:05.739Z,24.80
2022-07-29T22:41:32.188Z,24.72
2022-07-29T22:43:58.572Z,24.61
2022-07-29T22:46:25.007Z,24.54
2022-07-29T22:48:51.362Z,24.58
2022-07-29T22:51:17.716Z,24.56
2022-07-29T22:53:44.086Z,24.50
2022-07-29T22:56:10.519Z,24.49
2022-07-29T22:58:36.890Z,24.49
2022-07-29T23:01:03.363Z,24.51
2022-07-29T23:03:29.755Z,24.52
2022-07-29T23:05:56.110Z,24.54
2022-07-29T23:08:22.490Z,24.47
2022-07-29T23:10:48.858Z,24.45
2022-07-29T23:13:15.316Z,24.54
2022-07-29T23:15:41.687Z,24.57
2022-07-29T23:18:08.070Z,24.56
2022-07-29T23:20:34.474Z,24.58
2022-07-29T23:23:00.845Z,24.55
2022-07-29T23:25:27.241Z,24.61
2022-07-29T23:27:53.631Z,24.54
2022-07-29T23:30:19.995Z,24.53
2022-07-29T23:32:46.380Z,24.52
2022-07-29T23:35:12.792Z,24.48
2022-07-29T23:37:39.182Z,24.40
2022-07-29T23:40:05.597Z,24.44
2022-07-29T23:42:31.984Z,24.53
2022-07-29T23:44:58.346Z,24.53
2022-07-29T23:47:24.717Z,24.55
2022-07-29T23:49:51.104Z,24.62
2022-07-29T23:52:17.511Z,24.60
2022-07-29T23:54:43.874Z,24.70
2022-07-29T23:57:10.246Z,24.68
2022-07-29T23:59:36.713Z,24.65
